createdAt,value
2018-12-15T00:00:36.599Z,9.17
2018-12-15T00:05:39.714Z,9.13
2018-12-15T00:10:42.809Z,9.40
2018-12-15T00:15:45.941Z,8.53
2018-12-15T00:20:49.045Z,9.13
2018-12-15T00:25:52.161Z,9.78
2018-12-15T00:30:55.229Z,9.95
2018-12-15T00:35:58.320Z,10.57
2018-12-15T00:41:01.431Z,10.20
2018-12-15T00:46:05.105Z,10.25
2018-12-15T00:51:08.229Z,10.67
2018-12-15T00:56:11.311Z,9.77
2018-12-15T01:01:14.404Z,9.70
2018-12-15T01:06:17.574Z,10.03
2018-12-15T01:11:21.718Z,9.63
2018-12-15T01:16:24.824Z,9.83
2018-12-15T01:21:27.921Z,10.40
2018-12-15T01:26:31.053Z,10.68
2018-12-15T01:31:34.146Z,10.00
2018-12-15T01:36:37.238Z,10.10
2018-12-15T01:41:40.360Z,9.90
2018-12-15T01:46:43.442Z,10.40
2018-12-15T01:51:46.548Z,10.10
2018-12-15T01:56:49.728Z,10.73
2018-12-15T02:01:52.862Z,10.23
2018-12-15T02:06:55.956Z,9.67
2018-12-15T02:11:59.067Z,10.27
2018-12-15T02:17:02.151Z,9.90
2018-12-15T02:22:05.232Z,10.03
2018-12-15T02:27:08.360Z,10.70
2018-12-15T02:32:11.433Z,9.73
2018-12-15T02:37:14.532Z,9.53
2018-12-15T02:42:17.616Z,9.93
2018-12-15T02:47:20.774Z,9.23
2018-12-15T02:52:23.858Z,9.57
2018-12-15T02:57:26.968Z,10.00
2018-12-15T03:02:30.054Z,10.73
2018-12-15T03:07:33.147Z,10.32
2018-12-15T03:12:37.208Z,9.87
2018-12-15T03:17:40.329Z,9.63
2018-12-15T03:22:43.454Z,10.17
2018-12-15T03:27:46.549Z,10.73
2018-12-15T03:32:50.150Z,10.67
2018-12-15T03:37:53.235Z,10.10
2018-12-15T03:42:56.324Z,10.50
2018-12-15T03:47:59.422Z,10.33
2018-12-15T03:53:02.616Z,10.07
2018-12-15T03:58:07.172Z,10.80
2018-12-15T04:03:10.280Z,10.80
2018-12-15T04:08:13.380Z,10.80
2018-12-15T04:13:16.472Z,10.73
2018-12-15T04:18:19.574Z,10.80
2018-12-15T04:23:22.664Z,9.50
2018-12-15T04:33:35.290Z,9.90
2018-12-15T04:38:38.478Z,10.50
2018-12-15T04:43:41.568Z,10.00
2018-12-15T04:48:44.661Z,9.80
2018-12-15T04:53:47.827Z,10.90
2018-12-15T04:58:50.947Z,9.80
2018-12-15T05:03:54.038Z,10.27
2018-12-15T05:08:57.136Z,10.40
2018-12-15T05:14:00.235Z,10.27
2018-12-15T05:19:03.767Z,11.07
2018-12-15T05:24:06.856Z,9.90
2018-12-15T05:29:09.969Z,10.83
2018-12-15T05:34:13.036Z,10.97
2018-12-15T05:39:16.286Z,11.23
2018-12-15T05:44:19.352Z,11.43
2018-12-15T05:49:22.450Z,12.00
2018-12-15T05:54:25.539Z,11.70
2018-12-15T05:59:28.630Z,12.03
2018-12-15T06:04:31.721Z,12.80
2018-12-15T06:09:34.811Z,12.00
2018-12-15T06:14:37.939Z,12.07
2018-12-15T06:19:41.021Z,12.07
2018-12-15T06:24:44.114Z,12.30
2018-12-15T06:29:47.199Z,12.87
2018-12-15T06:34:50.369Z,12.40
2018-12-15T06:39:53.436Z,11.53
2018-12-15T06:44:56.560Z,11.43
2018-12-15T06:49:59.644Z,12.13
2018-12-15T06:55:02.776Z,11.93
2018-12-15T07:00:07.530Z,11.50
2018-12-15T07:05:10.693Z,12.10
2018-12-15T07:10:13.815Z,13.20
2018-12-15T07:15:16.898Z,12.33
2018-12-15T07:20:19.993Z,12.53
2018-12-15T07:25:23.111Z,13.33
2018-12-15T07:30:26.542Z,13.00
2018-12-15T07:35:29.620Z,12.10
2018-12-15T07:40:32.712Z,12.50
2018-12-15T07:45:35.832Z,12.00
2018-12-15T07:50:38.937Z,12.73
2018-12-15T07:55:42.110Z,11.97
2018-12-15T08:00:45.199Z,13.27
2018-12-15T08:05:48.497Z,13.17
2018-12-15T08:10:57.040Z,12.45
2018-12-15T08:16:00.232Z,13.37
2018-12-15T08:21:03.363Z,12.95
2018-12-15T08:26:06.477Z,13.53
2018-12-15T08:31:09.606Z,15.23
2018-12-15T08:36:12.684Z,16.07
2018-12-15T08:41:15.876Z,14.50
2018-12-15T08:46:19.168Z,13.85
2018-12-15T08:51:22.511Z,14.35
2018-12-15T08:56:25.611Z,14.33
2018-12-15T09:01:28.806Z,13.80
2018-12-15T09:06:32.008Z,13.90
2018-12-15T09:11:35.155Z,13.10
2018-12-15T09:16:38.313Z,13.80
2018-12-15T09:21:41.437Z,14.10
2018-12-15T09:26:44.522Z,13.97
2018-12-15T09:31:47.620Z,13.23
2018-12-15T09:36:50.741Z,13.50
2018-12-15T09:41:53.820Z,13.97
2018-12-15T09:46:56.967Z,12.93
2018-12-15T09:52:00.097Z,12.37
2018-12-15T09:57:03.374Z,13.57
2018-12-15T10:02:06.613Z,13.33
2018-12-15T10:07:09.719Z,13.77
2018-12-15T10:12:12.841Z,13.47
2018-12-15T10:17:15.941Z,14.33
2018-12-15T10:22:19.062Z,13.70
2018-12-15T10:27:22.142Z,12.93
2018-12-15T10:32:30.797Z,12.90
2018-12-15T10:37:34.176Z,12.40
2018-12-15T10:42:37.253Z,12.50
2018-12-15T10:47:40.372Z,12.83
2018-12-15T10:52:43.475Z,12.97
2018-12-15T10:57:46.622Z,12.43
2018-12-15T11:02:49.732Z,13.13
2018-12-15T11:07:52.799Z,13.37
2018-12-15T11:12:55.899Z,12.83
2018-12-15T11:17:58.985Z,12.17
2018-12-15T11:23:02.131Z,13.70
2018-12-15T11:28:05.281Z,13.13
2018-12-15T11:33:09.083Z,13.20
2018-12-15T11:38:12.443Z,12.82
2018-12-15T11:43:15.615Z,13.20
2018-12-15T11:48:18.776Z,13.10
2018-12-15T11:53:21.921Z,12.53
2018-12-15T11:58:25.010Z,11.77
2018-12-15T12:03:28.142Z,11.67
2018-12-15T12:08:31.235Z,13.20
2018-12-15T12:13:34.377Z,12.80
2018-12-15T12:18:37.485Z,12.30
2018-12-15T12:23:40.573Z,13.13
2018-12-15T12:28:43.661Z,12.50
2018-12-15T12:33:46.744Z,11.80
2018-12-15T12:38:49.868Z,13.67
2018-12-15T12:43:52.965Z,12.17
2018-12-15T12:48:56.064Z,12.50
2018-12-15T12:53:59.193Z,11.93
2018-12-15T12:59:02.352Z,11.37
2018-12-15T13:04:06.240Z,12.07
2018-12-15T13:09:09.386Z,11.63
2018-12-15T13:14:12.483Z,10.65
2018-12-15T13:19:15.605Z,10.82
2018-12-15T13:24:18.751Z,11.07
2018-12-15T13:29:21.836Z,11.13
2018-12-15T13:34:25.077Z,11.07
2018-12-15T13:39:28.173Z,11.43
2018-12-15T13:44:31.315Z,11.90
2018-12-15T13:49:34.574Z,11.37
2018-12-15T13:54:37.691Z,10.63
2018-12-15T13:59:40.889Z,11.40
2018-12-15T14:04:44.681Z,10.90
2018-12-15T14:09:47.851Z,11.03
2018-12-15T14:14:50.956Z,10.97
2018-12-15T14:19:54.059Z,10.60
2018-12-15T14:24:57.633Z,12.03
2018-12-15T14:30:00.708Z,12.43
2018-12-15T14:35:05.636Z,11.70
2018-12-15T14:40:08.825Z,11.83
2018-12-15T14:45:11.993Z,11.73
2018-12-15T14:50:15.241Z,11.33
2018-12-15T14:55:18.352Z,11.77
2018-12-15T15:00:21.476Z,11.57
2018-12-15T15:05:24.615Z,12.00
2018-12-15T15:10:27.867Z,12.73
2018-12-15T15:15:30.952Z,11.73
2018-12-15T15:20:34.476Z,12.50
2018-12-15T15:25:37.748Z,12.15
2018-12-15T15:30:40.894Z,12.00
2018-12-15T15:35:43.992Z,12.23
2018-12-15T15:40:47.138Z,12.37
2018-12-15T15:45:50.292Z,12.00
2018-12-15T15:50:53.437Z,12.80
2018-12-15T15:55:56.523Z,12.60
2018-12-15T16:00:59.657Z,11.80
2018-12-15T16:06:02.787Z,12.83
2018-12-15T16:11:05.947Z,12.93
2018-12-15T16:16:19.786Z,12.20
2018-12-15T16:21:22.883Z,13.07
2018-12-15T16:26:25.988Z,13.17
2018-12-15T16:31:29.080Z,12.40
2018-12-15T16:36:32.187Z,13.70
2018-12-15T16:41:42.049Z,12.87
2018-12-15T16:46:40.535Z,12.58
2018-12-15T16:51:43.665Z,11.93
2018-12-15T16:56:53.628Z,11.65
2018-12-15T17:01:58.788Z,12.03
2018-12-15T17:07:01.948Z,11.53
2018-12-15T17:12:05.073Z,11.60
2018-12-15T17:17:08.175Z,10.50
2018-12-15T17:22:12.201Z,11.93
2018-12-15T17:27:27.961Z,11.67
2018-12-15T17:32:31.062Z,12.40
2018-12-15T17:37:34.165Z,12.90
2018-12-15T17:42:37.259Z,12.40
2018-12-15T17:47:40.454Z,12.80
2018-12-15T17:52:43.558Z,12.47
2018-12-15T17:57:46.644Z,12.60
2018-12-15T18:02:49.818Z,12.45
2018-12-15T18:07:52.943Z,13.73
2018-12-15T18:12:56.072Z,13.43
2018-12-15T18:17:59.180Z,13.83
2018-12-15T18:23:02.346Z,14.63
2018-12-15T18:28:05.473Z,13.60
2018-12-15T18:33:08.583Z,12.83
2018-12-15T18:38:11.759Z,14.87
2018-12-15T18:43:14.936Z,14.17
2018-12-15T18:48:18.100Z,14.17
2018-12-15T18:53:21.197Z,14.73
2018-12-15T18:58:24.345Z,14.73
2018-12-15T19:03:27.484Z,14.30
2018-12-15T19:08:30.674Z,14.15
2018-12-15T19:13:33.800Z,14.70
2018-12-15T19:18:36.905Z,14.50
2018-12-15T19:23:39.989Z,13.97
2018-12-15T19:28:43.126Z,14.53
2018-12-15T19:33:46.212Z,15.37
2018-12-15T19:38:49.337Z,14.67
2018-12-15T19:43:52.492Z,15.37
2018-12-15T19:48:55.585Z,14.77
2018-12-15T19:53:58.748Z,14.43
2018-12-15T19:59:01.843Z,14.70
2018-12-15T20:04:04.937Z,14.10
2018-12-15T20:09:08.108Z,13.93
2018-12-15T20:14:11.201Z,15.33
2018-12-15T20:19:14.312Z,14.53
2018-12-15T20:24:17.432Z,15.23
2018-12-15T20:29:20.535Z,16.07
2018-12-15T20:34:23.628Z,15.70
2018-12-15T20:39:26.748Z,15.80
2018-12-15T20:44:29.841Z,16.13
2018-12-15T20:49:32.948Z,15.47
2018-12-15T20:54:36.043Z,15.30
2018-12-15T20:59:39.139Z,15.87
2018-12-15T21:04:42.240Z,16.60
2018-12-15T21:09:45.341Z,15.77
2018-12-15T21:14:48.960Z,15.20
2018-12-15T21:19:52.062Z,14.37
2018-12-15T21:24:55.161Z,15.77
2018-12-15T21:29:58.271Z,15.27
2018-12-15T21:35:01.425Z,15.47
2018-12-15T21:40:05.814Z,15.63
2018-12-15T21:45:09.000Z,15.67
2018-12-15T21:50:12.197Z,14.93
2018-12-15T21:55:15.294Z,14.27
2018-12-15T22:00:18.481Z,15.70
2018-12-15T22:05:21.627Z,15.27
2018-12-15T22:10:24.758Z,14.77
2018-12-15T22:15:27.887Z,15.03
2018-12-15T22:20:31.314Z,16.23
2018-12-15T22:25:34.398Z,15.77
2018-12-15T22:30:37.512Z,15.10
2018-12-15T22:35:40.597Z,15.30
2018-12-15T22:40:43.780Z,16.07
2018-12-15T22:45:46.906Z,17.05
2018-12-15T22:50:49.987Z,17.73
2018-12-15T22:55:53.140Z,16.65
2018-12-15T23:01:02.059Z,16.70
2018-12-15T23:06:05.932Z,16.00
2018-12-15T23:11:09.115Z,17.03
2018-12-15T23:16:12.235Z,17.63
2018-12-15T23:21:15.324Z,16.30
2018-12-15T23:26:18.419Z,17.90
2018-12-15T23:31:21.524Z,16.53
2018-12-15T23:36:24.616Z,15.33
2018-12-15T23:41:27.728Z,17.00
2018-12-15T23:46:30.878Z,17.02
2018-12-15T23:51:33.956Z,18.07
2018-12-15T23:56:37.020Z,15.73
